createdAt,value
2019-05-19T00:00:46.835Z,13.19
2019-05-19T00:03:15.033Z,13.13
2019-05-19T00:05:43.232Z,12.74
2019-05-19T00:08:11.594Z,12.51
2019-05-19T00:10:39.797Z,12.34
2019-05-19T00:13:07.983Z,12.63
2019-05-19T00:15:36.221Z,12.82
2019-05-19T00:18:04.422Z,12.91
2019-05-19T00:20:32.624Z,12.85
2019-05-19T00:23:00.819Z,12.79
2019-05-19T00:25:29.064Z,12.80
2019-05-19T00:27:57.257Z,12.80
2019-05-19T00:30:25.443Z,12.76
2019-05-19T00:32:53.633Z,12.62
2019-05-19T00:35:21.894Z,12.47
2019-05-19T00:37:50.363Z,12.72
2019-05-19T00:40:18.571Z,12.87
2019-05-19T00:42:46.763Z,12.83
2019-05-19T00:45:14.970Z,12.67
2019-05-19T00:47:43.170Z,12.50
2019-05-19T00:50:11.395Z,12.47
2019-05-19T00:52:39.569Z,12.56
2019-05-19T00:55:08.340Z,12.46
2019-05-19T00:57:36.908Z,12.16
2019-05-19T01:00:08.380Z,11.92
2019-05-19T01:02:36.576Z,11.93
2019-05-19T01:05:07.381Z,11.75
2019-05-19T01:07:35.905Z,11.81
2019-05-19T01:10:05.947Z,11.75
2019-05-19T01:12:34.149Z,11.58
2019-05-19T01:15:02.352Z,11.71
2019-05-19T01:17:30.556Z,11.69
2019-05-19T01:19:58.751Z,11.69
2019-05-19T01:22:26.953Z,11.90
2019-05-19T01:24:55.145Z,12.21
2019-05-19T01:27:23.350Z,12.17
2019-05-19T01:29:51.542Z,12.23
2019-05-19T01:32:19.746Z,12.51
2019-05-19T01:34:47.937Z,12.49
2019-05-19T01:37:16.140Z,12.56
2019-05-19T01:39:44.334Z,12.62
2019-05-19T01:42:12.538Z,12.53
2019-05-19T01:44:40.735Z,12.63
2019-05-19T01:47:09.708Z,12.69
2019-05-19T01:49:37.902Z,12.57
2019-05-19T01:52:06.204Z,12.73
2019-05-19T01:54:34.396Z,12.76
2019-05-19T01:57:02.665Z,12.84
2019-05-19T01:59:31.421Z,12.90
2019-05-19T02:01:59.627Z,12.75
2019-05-19T02:04:27.822Z,12.49
2019-05-19T02:06:56.028Z,12.56
2019-05-19T02:09:24.537Z,12.70
2019-05-19T02:11:52.722Z,12.80
2019-05-19T02:14:20.916Z,12.77
2019-05-19T02:16:49.117Z,12.77
2019-05-19T02:19:17.309Z,12.57
2019-05-19T02:21:47.902Z,12.50
2019-05-19T02:24:15.432Z,12.36
2019-05-19T02:26:43.632Z,12.38
2019-05-19T02:29:11.824Z,12.63
2019-05-19T02:31:40.030Z,12.67
2019-05-19T02:34:08.226Z,12.65
2019-05-19T02:36:36.907Z,12.73
2019-05-19T02:39:06.342Z,12.60
2019-05-19T02:41:34.548Z,12.56
2019-05-19T02:44:02.924Z,12.62
2019-05-19T02:46:31.189Z,12.70
2019-05-19T02:48:59.623Z,12.65
2019-05-19T02:51:28.296Z,12.82
2019-05-19T02:53:56.668Z,12.80
2019-05-19T02:56:24.893Z,12.69
2019-05-19T02:58:53.075Z,12.64
2019-05-19T03:01:21.620Z,12.70
2019-05-19T03:03:49.826Z,12.65
2019-05-19T03:06:18.106Z,12.51
2019-05-19T03:08:47.083Z,12.51
2019-05-19T03:11:15.348Z,12.56
2019-05-19T03:13:43.554Z,12.32
2019-05-19T03:16:11.757Z,12.22
2019-05-19T03:18:39.968Z,12.14
2019-05-19T03:21:11.458Z,12.18
2019-05-19T03:23:38.111Z,12.29
2019-05-19T03:26:06.371Z,12.44
2019-05-19T03:28:34.585Z,12.66
2019-05-19T03:31:04.427Z,12.55
2019-05-19T03:33:34.944Z,12.68
2019-05-19T03:36:03.175Z,12.72
2019-05-19T03:38:31.383Z,12.55
2019-05-19T03:40:59.581Z,12.64
2019-05-19T03:43:27.836Z,12.75
2019-05-19T03:45:55.975Z,12.71
2019-05-19T03:48:24.272Z,12.68
2019-05-19T03:50:52.479Z,12.87
2019-05-19T03:53:20.678Z,12.81
2019-05-19T03:55:48.882Z,12.81
2019-05-19T03:58:17.087Z,12.86
2019-05-19T04:00:45.281Z,12.73
2019-05-19T04:03:16.422Z,12.92
2019-05-19T04:05:44.624Z,12.80
2019-05-19T04:08:12.838Z,12.63
2019-05-19T04:10:41.618Z,12.66
2019-05-19T04:13:09.833Z,12.83
2019-05-19T04:15:38.265Z,12.99
2019-05-19T04:18:06.466Z,12.85
2019-05-19T04:20:34.662Z,12.68
2019-05-19T04:23:02.880Z,12.47
2019-05-19T04:25:31.076Z,12.40
2019-05-19T04:27:59.296Z,12.53
2019-05-19T04:30:27.515Z,12.82
2019-05-19T04:32:55.734Z,12.95
2019-05-19T04:35:23.933Z,13.03
2019-05-19T04:37:52.146Z,13.09
2019-05-19T04:40:20.344Z,13.06
2019-05-19T04:42:48.544Z,13.14
2019-05-19T04:45:16.753Z,13.31
2019-05-19T04:47:44.977Z,13.36
2019-05-19T04:50:13.926Z,13.40
2019-05-19T04:52:42.145Z,13.36
2019-05-19T04:55:10.685Z,13.42
2019-05-19T04:57:38.898Z,13.59
2019-05-19T05:00:08.128Z,13.68
2019-05-19T05:02:36.396Z,13.64
2019-05-19T05:05:08.004Z,13.61
2019-05-19T05:07:36.193Z,13.79
2019-05-19T05:10:04.757Z,13.86
2019-05-19T05:12:33.539Z,13.97
2019-05-19T05:15:01.750Z,14.22
2019-05-19T05:17:29.944Z,14.49
2019-05-19T05:19:58.723Z,14.88
2019-05-19T05:22:26.922Z,15.14
2019-05-19T05:24:55.135Z,15.32
2019-05-19T05:27:23.330Z,15.47
2019-05-19T05:29:51.540Z,15.43
2019-05-19T05:32:19.733Z,15.46
2019-05-19T05:34:47.941Z,15.63
2019-05-19T05:37:17.134Z,15.90
2019-05-19T05:39:45.337Z,16.07
2019-05-19T05:42:13.533Z,16.04
2019-05-19T05:44:41.736Z,16.27
2019-05-19T05:47:09.946Z,16.41
2019-05-19T05:49:39.799Z,16.48
2019-05-19T05:52:08.055Z,16.43
2019-05-19T05:54:36.264Z,16.65
2019-05-19T05:57:04.476Z,16.80
2019-05-19T05:59:32.693Z,16.88
2019-05-19T06:02:00.893Z,16.88
2019-05-19T06:04:29.105Z,16.84
2019-05-19T06:06:57.311Z,16.64
2019-05-19T06:09:25.633Z,16.70
2019-05-19T06:11:53.821Z,16.70
2019-05-19T06:14:22.056Z,16.88
2019-05-19T06:16:50.258Z,17.09
2019-05-19T06:19:18.485Z,17.30
2019-05-19T06:21:46.678Z,17.30
2019-05-19T06:24:14.896Z,17.41
2019-05-19T06:26:43.110Z,17.78
2019-05-19T06:29:12.144Z,17.78
2019-05-19T06:31:40.344Z,18.06
2019-05-19T06:34:08.587Z,18.06
2019-05-19T06:36:36.764Z,18.27
2019-05-19T06:39:06.831Z,18.45
2019-05-19T06:41:35.796Z,18.56
2019-05-19T06:44:04.040Z,18.67
2019-05-19T06:46:32.311Z,18.62
2019-05-19T06:49:00.524Z,18.65
2019-05-19T06:51:28.735Z,18.66
2019-05-19T06:53:56.940Z,18.59
2019-05-19T06:56:25.137Z,18.56
2019-05-19T06:58:53.674Z,18.70
2019-05-19T07:01:21.880Z,18.83
2019-05-19T07:03:50.860Z,18.70
2019-05-19T07:06:19.632Z,18.71
2019-05-19T07:08:47.848Z,18.49
2019-05-19T07:11:16.050Z,18.71
2019-05-19T07:13:44.246Z,19.05
2019-05-19T07:16:12.457Z,19.42
2019-05-19T07:18:40.658Z,19.57
2019-05-19T07:21:08.868Z,19.82
2019-05-19T07:23:37.072Z,19.98
2019-05-19T07:26:05.563Z,20.18
2019-05-19T07:28:33.820Z,20.31
2019-05-19T07:31:02.539Z,20.37
2019-05-19T07:33:30.739Z,20.54
2019-05-19T07:35:58.947Z,20.52
2019-05-19T07:38:27.716Z,20.73
2019-05-19T07:40:56.501Z,20.95
2019-05-19T07:43:24.764Z,20.95
2019-05-19T07:45:53.300Z,20.92
2019-05-19T07:48:21.505Z,21.04
2019-05-19T07:50:49.712Z,21.22
2019-05-19T07:53:17.911Z,21.25
2019-05-19T07:55:46.134Z,21.00
2019-05-19T07:58:14.337Z,21.01
2019-05-19T08:00:42.556Z,21.15
2019-05-19T08:03:11.037Z,21.24
2019-05-19T08:05:39.243Z,21.53
2019-05-19T08:08:07.441Z,21.70
2019-05-19T08:10:35.665Z,21.75
2019-05-19T08:13:04.366Z,21.92
2019-05-19T08:15:32.633Z,21.71
2019-05-19T08:18:00.836Z,22.09
2019-05-19T08:20:29.043Z,22.13
2019-05-19T08:22:57.242Z,22.03
2019-05-19T08:25:26.785Z,22.07
2019-05-19T08:27:54.982Z,22.02
2019-05-19T08:30:23.959Z,22.20
2019-05-19T08:32:52.154Z,22.53
2019-05-19T08:35:21.125Z,22.76
2019-05-19T08:37:49.322Z,22.91
2019-05-19T08:40:17.531Z,22.85
2019-05-19T08:42:45.737Z,22.96
2019-05-19T08:45:13.941Z,22.78
2019-05-19T08:47:42.154Z,22.81
2019-05-19T08:50:10.395Z,23.07
2019-05-19T08:52:38.573Z,23.09
2019-05-19T08:55:06.796Z,23.34
2019-05-19T08:57:35.292Z,23.64
2019-05-19T09:00:04.675Z,23.21
2019-05-19T09:02:32.850Z,23.11
2019-05-19T09:05:01.073Z,23.20
2019-05-19T09:07:29.286Z,23.33
2019-05-19T09:09:57.496Z,23.37
2019-05-19T09:12:25.699Z,23.16
2019-05-19T09:14:53.900Z,23.49
2019-05-19T09:17:22.114Z,23.59
2019-05-19T09:19:50.320Z,23.02
2019-05-19T09:22:18.914Z,22.27
2019-05-19T09:24:47.102Z,22.70
2019-05-19T09:27:16.084Z,22.93
2019-05-19T09:29:44.291Z,22.91
2019-05-19T09:32:13.234Z,23.08
2019-05-19T09:34:41.432Z,23.45
2019-05-19T09:37:09.645Z,23.66
2019-05-19T09:39:37.848Z,23.50
2019-05-19T09:42:06.335Z,23.64
2019-05-19T09:44:35.018Z,23.78
2019-05-19T09:47:03.228Z,23.88
2019-05-19T09:49:35.177Z,24.13
2019-05-19T09:52:03.926Z,24.26
2019-05-19T09:54:44.245Z,23.69
2019-05-19T09:57:02.655Z,23.96
2019-05-19T09:59:30.852Z,24.18
2019-05-19T10:01:59.103Z,24.53
2019-05-19T10:04:28.043Z,23.78
2019-05-19T10:06:56.316Z,24.12
2019-05-19T10:09:30.637Z,24.45
2019-05-19T10:12:01.449Z,24.49
2019-05-19T10:14:29.648Z,24.20
2019-05-19T10:16:57.859Z,24.06
2019-05-19T10:19:26.063Z,23.77
2019-05-19T10:21:54.274Z,23.77
2019-05-19T10:24:22.512Z,24.09
2019-05-19T10:26:50.993Z,24.71
2019-05-19T10:29:19.208Z,24.87
2019-05-19T10:31:47.658Z,24.64
2019-05-19T10:34:15.910Z,24.83
2019-05-19T10:36:44.812Z,24.77
2019-05-19T10:39:13.014Z,24.11
2019-05-19T10:41:41.231Z,23.67
2019-05-19T10:44:09.438Z,23.63
2019-05-19T10:46:38.323Z,24.22
2019-05-19T10:49:06.537Z,24.49
2019-05-19T10:51:34.747Z,24.76
2019-05-19T10:54:02.954Z,25.04
2019-05-19T10:56:31.733Z,25.05
2019-05-19T10:58:59.938Z,24.88
2019-05-19T11:01:28.146Z,25.48
2019-05-19T11:03:56.384Z,25.77
2019-05-19T11:06:24.654Z,25.53
2019-05-19T11:08:52.832Z,25.65
2019-05-19T11:11:21.058Z,25.39
2019-05-19T11:13:49.258Z,25.59
2019-05-19T11:16:18.113Z,25.72
2019-05-19T11:18:46.504Z,25.27
2019-05-19T11:21:14.709Z,24.90
2019-05-19T11:23:43.838Z,25.10
2019-05-19T11:26:12.036Z,25.44
2019-05-19T11:28:41.088Z,25.70
2019-05-19T11:31:09.602Z,25.78
2019-05-19T11:33:38.071Z,25.39
2019-05-19T11:36:06.272Z,24.42
2019-05-19T11:38:35.156Z,24.04
2019-05-19T11:41:03.357Z,24.38
2019-05-19T11:43:31.576Z,24.06
2019-05-19T11:46:00.449Z,24.46
2019-05-19T11:48:28.657Z,24.36
2019-05-19T11:50:57.676Z,24.48
2019-05-19T11:53:25.889Z,25.38
2019-05-19T11:56:05.781Z,24.98
2019-05-19T11:58:24.801Z,24.67
2019-05-19T12:00:53.009Z,24.93
2019-05-19T12:03:21.797Z,24.83
2019-05-19T12:05:50.667Z,24.35
2019-05-19T12:08:18.875Z,24.65
2019-05-19T12:10:47.077Z,25.10
2019-05-19T12:13:15.299Z,24.26
2019-05-19T12:15:43.505Z,24.34
2019-05-19T12:18:12.595Z,24.52
2019-05-19T12:20:40.815Z,24.86
2019-05-19T12:23:09.062Z,25.40
2019-05-19T12:25:37.260Z,26.08
2019-05-19T12:28:05.485Z,26.32
2019-05-19T12:30:34.439Z,26.61
2019-05-19T12:33:02.669Z,26.89
2019-05-19T12:35:30.864Z,27.06
2019-05-19T12:37:59.065Z,27.05
2019-05-19T12:40:27.270Z,27.33
2019-05-19T12:42:55.477Z,27.47
2019-05-19T12:45:23.673Z,27.39
2019-05-19T12:47:52.415Z,27.44
2019-05-19T12:50:20.630Z,27.17
2019-05-19T12:52:48.829Z,27.00
2019-05-19T12:55:17.023Z,26.31
2019-05-19T12:57:45.281Z,25.45
2019-05-19T13:00:13.479Z,24.74
2019-05-19T13:02:42.000Z,24.71
2019-05-19T13:05:10.194Z,24.37
2019-05-19T13:07:38.403Z,24.27
2019-05-19T13:10:07.422Z,24.38
2019-05-19T13:12:35.625Z,24.29
2019-05-19T13:15:06.617Z,24.47
2019-05-19T13:17:35.147Z,24.32
2019-05-19T13:20:03.851Z,24.24
2019-05-19T13:22:32.040Z,24.32
2019-05-19T13:25:00.819Z,24.02
2019-05-19T13:27:29.013Z,23.98
2019-05-19T13:29:57.221Z,24.56
2019-05-19T13:32:26.018Z,25.41
2019-05-19T13:34:54.194Z,25.20
2019-05-19T13:37:22.771Z,25.76
2019-05-19T13:39:51.029Z,26.17
2019-05-19T13:42:19.214Z,26.72
2019-05-19T13:44:48.661Z,26.97
2019-05-19T13:47:16.860Z,26.91
2019-05-19T13:49:45.333Z,26.55
2019-05-19T13:52:13.798Z,26.68
2019-05-19T13:54:42.019Z,27.02
2019-05-19T13:57:12.531Z,27.09
2019-05-19T13:59:40.144Z,26.99
2019-05-19T14:02:08.343Z,26.80
2019-05-19T14:04:36.686Z,27.32
2019-05-19T14:07:04.902Z,27.05
2019-05-19T14:09:33.125Z,27.06
2019-05-19T14:12:01.308Z,27.20
2019-05-19T14:14:29.522Z,27.05
2019-05-19T14:16:57.721Z,27.37
2019-05-19T14:19:26.102Z,27.54
2019-05-19T14:21:54.762Z,27.74
2019-05-19T14:24:22.968Z,27.79
2019-05-19T14:26:51.930Z,27.85
2019-05-19T14:29:20.142Z,28.13
2019-05-19T14:31:48.325Z,28.15
2019-05-19T14:34:16.533Z,26.69
2019-05-19T14:36:44.725Z,26.28
2019-05-19T14:39:12.930Z,26.80
2019-05-19T14:41:43.531Z,26.97
2019-05-19T14:44:11.733Z,26.74
2019-05-19T14:46:39.930Z,27.12
2019-05-19T14:49:08.906Z,27.25
2019-05-19T14:51:37.108Z,27.64
2019-05-19T14:54:05.559Z,27.60
2019-05-19T14:56:34.221Z,28.22
2019-05-19T14:59:02.431Z,27.67
2019-05-19T15:01:30.626Z,27.34
2019-05-19T15:03:59.406Z,27.06
2019-05-19T15:06:27.619Z,26.99
2019-05-19T15:08:55.843Z,26.74
2019-05-19T15:11:24.024Z,26.18
2019-05-19T15:13:53.013Z,25.65
2019-05-19T15:16:22.027Z,25.61
2019-05-19T15:18:50.235Z,25.09
2019-05-19T15:21:19.363Z,24.77
2019-05-19T15:23:47.944Z,24.86
2019-05-19T15:26:16.822Z,24.69
2019-05-19T15:28:45.026Z,24.74
2019-05-19T15:31:14.012Z,24.79
2019-05-19T15:33:42.211Z,24.87
2019-05-19T15:36:10.424Z,24.80
2019-05-19T15:38:38.634Z,24.80
2019-05-19T15:41:06.838Z,24.78
2019-05-19T15:43:35.043Z,24.74
2019-05-19T15:46:03.257Z,25.01
2019-05-19T15:48:32.023Z,25.13
2019-05-19T15:51:00.241Z,25.08
2019-05-19T15:53:28.443Z,24.87
2019-05-19T15:55:56.654Z,24.61
2019-05-19T15:58:25.164Z,24.32
2019-05-19T16:00:53.383Z,24.33
2019-05-19T16:03:21.579Z,24.33
2019-05-19T16:05:50.563Z,24.48
2019-05-19T16:08:18.767Z,24.75
2019-05-19T16:10:46.985Z,24.84
2019-05-19T16:13:15.958Z,24.83
2019-05-19T16:15:44.183Z,24.75
2019-05-19T16:18:12.386Z,24.67
2019-05-19T16:20:40.603Z,24.61
2019-05-19T16:23:08.804Z,24.55
2019-05-19T16:25:37.016Z,24.47
2019-05-19T16:28:05.275Z,24.29
2019-05-19T16:30:33.534Z,24.05
2019-05-19T16:33:01.742Z,24.22
2019-05-19T16:35:29.948Z,24.31
2019-05-19T16:37:58.634Z,24.40
2019-05-19T16:40:26.908Z,24.29
2019-05-19T16:42:55.691Z,23.94
2019-05-19T16:45:24.177Z,23.95
2019-05-19T16:47:52.402Z,23.80
2019-05-19T16:50:20.633Z,23.73
2019-05-19T16:52:48.828Z,23.41
2019-05-19T16:55:18.679Z,23.35
2019-05-19T16:57:46.886Z,23.30
2019-05-19T17:00:15.105Z,23.35
2019-05-19T17:02:43.310Z,23.42
2019-05-19T17:05:11.990Z,23.24
2019-05-19T17:07:40.191Z,23.24
2019-05-19T17:10:08.840Z,23.24
2019-05-19T17:12:37.082Z,23.03
2019-05-19T17:15:05.705Z,23.14
2019-05-19T17:17:33.910Z,22.97
2019-05-19T17:20:02.132Z,22.81
2019-05-19T17:22:30.330Z,22.20
2019-05-19T17:25:00.347Z,22.21
2019-05-19T17:27:28.469Z,21.76
2019-05-19T17:29:56.668Z,21.47
2019-05-19T17:32:24.883Z,21.25
2019-05-19T17:34:53.093Z,20.91
2019-05-19T17:37:21.872Z,20.61
2019-05-19T17:39:50.076Z,20.46
2019-05-19T17:42:18.851Z,20.32
2019-05-19T17:44:47.053Z,20.05
2019-05-19T17:47:15.264Z,20.04
2019-05-19T17:49:43.470Z,20.03
2019-05-19T17:52:11.683Z,19.95
2019-05-19T17:54:39.878Z,19.95
2019-05-19T17:57:08.091Z,19.98
2019-05-19T17:59:36.294Z,19.92
2019-05-19T18:02:04.511Z,19.87
2019-05-19T18:04:32.717Z,19.97
2019-05-19T18:07:00.926Z,19.91
2019-05-19T18:09:29.695Z,19.90
2019-05-19T18:11:57.911Z,19.85
2019-05-19T18:14:26.116Z,19.86
2019-05-19T18:16:54.326Z,19.93
2019-05-19T18:19:23.091Z,19.76
2019-05-19T18:21:51.310Z,19.79
2019-05-19T18:24:19.508Z,19.85
2019-05-19T18:26:47.721Z,19.66
2019-05-19T18:29:15.926Z,19.47
2019-05-19T18:31:44.142Z,19.40
2019-05-19T18:34:12.347Z,19.43
2019-05-19T18:36:40.567Z,19.36
2019-05-19T18:39:08.775Z,19.22
2019-05-19T18:41:37.718Z,19.03
2019-05-19T18:44:05.915Z,19.11
2019-05-19T18:46:34.117Z,19.10
2019-05-19T18:49:02.321Z,19.10
2019-05-19T18:51:30.525Z,19.20
2019-05-19T18:53:58.724Z,19.25
2019-05-19T18:56:26.939Z,19.10
2019-05-19T18:58:55.125Z,19.05
2019-05-19T19:01:23.335Z,18.78
2019-05-19T19:03:51.530Z,18.56
2019-05-19T19:06:19.767Z,18.61
2019-05-19T19:08:48.262Z,18.58
2019-05-19T19:11:16.459Z,18.75
2019-05-19T19:13:44.919Z,18.64
2019-05-19T19:16:13.108Z,18.53
2019-05-19T19:18:41.681Z,18.30
2019-05-19T19:21:09.981Z,18.16
2019-05-19T19:23:38.189Z,18.36
2019-05-19T19:26:06.718Z,18.36
2019-05-19T19:28:36.464Z,18.31
2019-05-19T19:31:06.878Z,18.13
2019-05-19T19:33:35.344Z,18.24
2019-05-19T19:36:03.532Z,18.11
2019-05-19T19:38:32.205Z,18.03
2019-05-19T19:41:00.474Z,18.12
2019-05-19T19:43:28.678Z,18.06
2019-05-19T19:45:56.959Z,18.03
2019-05-19T19:48:25.169Z,18.08
2019-05-19T19:50:53.369Z,18.06
2019-05-19T19:53:21.574Z,18.07
2019-05-19T19:55:50.245Z,18.07
2019-05-19T19:58:18.459Z,17.96
2019-05-19T20:00:46.909Z,17.86
2019-05-19T20:03:15.386Z,17.87
2019-05-19T20:05:43.576Z,17.76
2019-05-19T20:08:11.960Z,17.81
2019-05-19T20:10:40.154Z,17.64
2019-05-19T20:13:08.699Z,17.64
2019-05-19T20:15:37.538Z,17.59
2019-05-19T20:18:05.740Z,17.50
2019-05-19T20:20:33.938Z,17.35
2019-05-19T20:23:02.433Z,17.35
2019-05-19T20:25:30.691Z,17.26
2019-05-19T20:27:58.904Z,17.25
2019-05-19T20:30:35.613Z,17.26
2019-05-19T20:32:57.786Z,17.19
2019-05-19T20:35:26.268Z,17.17
2019-05-19T20:37:54.489Z,17.10
2019-05-19T20:40:22.686Z,17.08
2019-05-19T20:42:50.938Z,16.93
2019-05-19T20:45:19.598Z,16.91
2019-05-19T20:47:48.604Z,16.86
2019-05-19T20:50:16.790Z,16.86
2019-05-19T20:52:45.467Z,16.83
2019-05-19T20:55:13.678Z,16.79
2019-05-19T20:57:42.648Z,16.72
2019-05-19T21:00:10.877Z,16.82
2019-05-19T21:02:39.372Z,16.78
2019-05-19T21:05:07.572Z,16.69
2019-05-19T21:07:35.949Z,16.70
2019-05-19T21:10:08.018Z,16.67
2019-05-19T21:12:36.216Z,16.55
2019-05-19T21:15:05.167Z,16.53
2019-05-19T21:17:33.522Z,16.40
2019-05-19T21:20:02.226Z,16.37
2019-05-19T21:22:30.913Z,16.24
2019-05-19T21:25:00.410Z,15.93
2019-05-19T21:27:28.607Z,15.65
2019-05-19T21:29:56.813Z,15.66
2019-05-19T21:32:25.009Z,15.44
2019-05-19T21:34:53.214Z,15.27
2019-05-19T21:37:21.413Z,14.96
2019-05-19T21:39:49.987Z,15.00
2019-05-19T21:42:18.178Z,14.92
2019-05-19T21:44:46.384Z,14.99
2019-05-19T21:47:15.154Z,14.88
2019-05-19T21:49:43.365Z,14.66
2019-05-19T21:52:11.562Z,14.71
2019-05-19T21:54:40.058Z,14.67
2019-05-19T21:57:08.257Z,14.59
2019-05-19T21:59:36.448Z,14.39
2019-05-19T22:02:04.727Z,14.39
2019-05-19T22:04:32.922Z,14.30
2019-05-19T22:07:14.652Z,14.51
2019-05-19T22:09:42.850Z,14.67
2019-05-19T22:12:11.057Z,14.42
2019-05-19T22:14:39.272Z,14.39
2019-05-19T22:17:07.483Z,14.54
2019-05-19T22:19:36.445Z,14.86
2019-05-19T22:22:04.659Z,14.94
2019-05-19T22:24:32.934Z,14.96
2019-05-19T22:27:02.206Z,14.87
2019-05-19T22:29:30.401Z,14.72
2019-05-19T22:31:58.967Z,14.85
2019-05-19T22:34:27.168Z,14.82
2019-05-19T22:36:55.400Z,14.99
2019-05-19T22:39:24.155Z,15.13
2019-05-19T22:41:52.372Z,15.10
2019-05-19T22:44:21.140Z,14.92
2019-05-19T22:46:49.353Z,14.94
2019-05-19T22:49:17.553Z,15.06
2019-05-19T22:51:45.762Z,15.01
2019-05-19T22:54:13.960Z,14.96
2019-05-19T22:56:42.174Z,14.91
2019-05-19T22:59:19.370Z,15.01
2019-05-19T23:01:51.365Z,14.84
2019-05-19T23:04:11.409Z,14.96
2019-05-19T23:06:39.631Z,14.72
2019-05-19T23:09:07.831Z,14.77
2019-05-19T23:11:36.046Z,14.70
2019-05-19T23:14:04.247Z,14.54
2019-05-19T23:16:32.926Z,14.62
2019-05-19T23:19:01.694Z,14.53
2019-05-19T23:21:30.251Z,14.63
2019-05-19T23:23:59.031Z,14.66
2019-05-19T23:26:27.258Z,14.49
2019-05-19T23:28:56.027Z,14.29
2019-05-19T23:31:24.237Z,14.02
2019-05-19T23:33:52.451Z,14.15
2019-05-19T23:36:20.659Z,14.21
2019-05-19T23:38:48.877Z,13.99
2019-05-19T23:41:17.075Z,13.76
2019-05-19T23:43:45.859Z,13.66
2019-05-19T23:46:14.070Z,13.60
2019-05-19T23:48:42.282Z,13.34
2019-05-19T23:51:10.487Z,13.43
2019-05-19T23:53:38.706Z,13.41
2019-05-19T23:56:06.906Z,13.35
2019-05-19T23:58:35.788Z,13.53
